createdAt,value
2019-02-26T00:01:05.978Z,4.20
2019-02-26T00:03:55.669Z,4.20
2019-02-26T00:06:47.163Z,4.20
2019-02-26T00:09:35.514Z,4.20
2019-02-26T00:12:26.455Z,4.20
2019-02-26T00:15:16.235Z,4.20
2019-02-26T00:18:07.520Z,4.20
2019-02-26T00:20:58.450Z,4.20
2019-02-26T00:23:48.719Z,4.20
2019-02-26T00:26:38.576Z,4.20
2019-02-26T00:29:29.840Z,4.20
2019-02-26T00:32:19.365Z,4.10
2019-02-26T00:35:09.481Z,4.10
2019-02-26T00:37:58.684Z,4.00
2019-02-26T00:40:47.940Z,4.00
2019-02-26T00:43:37.047Z,3.90
2019-02-26T00:46:28.496Z,3.90
2019-02-26T00:49:19.093Z,3.90
2019-02-26T00:52:08.684Z,3.80
2019-02-26T00:55:00.014Z,3.80
2019-02-26T00:57:49.458Z,3.80
2019-02-26T01:00:38.762Z,3.70
2019-02-26T01:03:27.895Z,3.70
2019-02-26T01:06:16.603Z,3.70
2019-02-26T01:09:09.343Z,3.60
2019-02-26T01:11:58.614Z,3.60
2019-02-26T01:14:48.182Z,3.60
2019-02-26T01:17:39.967Z,3.60
2019-02-26T01:20:30.214Z,3.50
2019-02-26T01:23:21.598Z,3.50
2019-02-26T01:26:12.140Z,3.50
2019-02-26T01:29:01.489Z,3.60
2019-02-26T01:31:51.077Z,3.50
2019-02-26T01:34:40.563Z,3.50
2019-02-26T01:37:32.082Z,3.40
2019-02-26T01:40:23.538Z,3.50
2019-02-26T01:43:11.943Z,3.60
2019-02-26T01:46:01.628Z,3.50
2019-02-26T01:48:50.803Z,3.60
2019-02-26T01:51:39.984Z,3.50
2019-02-26T01:54:30.509Z,3.50
2019-02-26T01:57:19.408Z,3.50
2019-02-26T02:00:19.779Z,3.40
2019-02-26T02:03:09.392Z,3.40
2019-02-26T02:05:58.179Z,3.40
2019-02-26T02:08:48.269Z,3.50
2019-02-26T02:11:38.042Z,3.50
2019-02-26T02:14:28.956Z,3.50
2019-02-26T02:17:17.971Z,3.50
2019-02-26T02:20:18.080Z,3.60
2019-02-26T02:23:05.365Z,3.60
2019-02-26T02:25:59.771Z,3.60
2019-02-26T02:28:46.455Z,3.60
2019-02-26T02:31:37.704Z,3.60
2019-02-26T02:34:29.422Z,3.70
2019-02-26T02:37:18.581Z,3.80
2019-02-26T02:40:11.886Z,3.80
2019-02-26T02:43:04.471Z,3.80
2019-02-26T02:45:55.131Z,3.90
2019-02-26T02:48:43.247Z,3.90
2019-02-26T02:51:34.594Z,4.00
2019-02-26T02:54:23.626Z,4.00
2019-02-26T02:57:13.597Z,4.10
2019-02-26T03:00:02.970Z,4.10
2019-02-26T03:02:53.781Z,4.20
2019-02-26T03:05:45.789Z,4.20
2019-02-26T03:08:34.430Z,4.30
2019-02-26T03:11:23.477Z,4.40
2019-02-26T03:14:13.830Z,4.40
2019-02-26T03:17:02.987Z,4.40
2019-02-26T03:19:55.837Z,4.40
2019-02-26T03:22:46.666Z,4.40
2019-02-26T03:25:34.553Z,4.50
2019-02-26T03:28:24.165Z,4.40
2019-02-26T03:31:12.880Z,4.50
2019-02-26T03:34:08.771Z,4.40
2019-02-26T03:36:53.028Z,4.40
2019-02-26T03:39:41.643Z,4.50
2019-02-26T03:42:30.390Z,4.50
2019-02-26T03:45:23.862Z,4.50
2019-02-26T03:48:10.483Z,4.40
2019-02-26T03:51:01.300Z,4.40
2019-02-26T03:53:51.377Z,4.50
2019-02-26T03:56:40.694Z,4.50
2019-02-26T03:59:30.074Z,4.50
2019-02-26T04:02:20.848Z,4.40
2019-02-26T04:05:15.176Z,4.40
2019-02-26T04:08:05.084Z,4.40
2019-02-26T04:10:55.953Z,4.30
2019-02-26T04:13:45.996Z,4.30
2019-02-26T04:16:35.303Z,4.30
2019-02-26T04:19:26.801Z,4.30
2019-02-26T04:22:33.376Z,4.30
2019-02-26T04:25:29.999Z,4.40
2019-02-26T04:28:30.685Z,4.40
2019-02-26T04:32:09.555Z,4.50
2019-02-26T04:35:01.971Z,4.50
2019-02-26T04:38:18.124Z,4.50
2019-02-26T04:41:11.983Z,4.60
2019-02-26T04:44:09.783Z,4.50
2019-02-26T04:47:02.162Z,4.50
2019-02-26T04:49:50.279Z,4.50
2019-02-26T04:52:41.331Z,4.50
2019-02-26T04:55:34.930Z,4.50
2019-02-26T04:58:22.728Z,4.50
2019-02-26T05:01:13.422Z,4.60
2019-02-26T05:04:02.828Z,4.50
2019-02-26T05:06:52.513Z,4.40
2019-02-26T05:09:41.866Z,4.40
2019-02-26T05:12:33.988Z,4.30
2019-02-26T05:15:23.296Z,4.30
2019-02-26T05:18:12.353Z,4.30
2019-02-26T05:21:02.757Z,4.20
2019-02-26T05:23:52.409Z,4.10
2019-02-26T05:26:42.376Z,4.00
2019-02-26T05:29:31.796Z,3.90
2019-02-26T05:32:21.900Z,3.90
2019-02-26T05:35:12.151Z,3.90
2019-02-26T05:38:06.071Z,3.90
2019-02-26T05:40:55.664Z,3.80
2019-02-26T05:43:49.447Z,3.80
2019-02-26T05:46:35.589Z,3.70
2019-02-26T05:49:24.659Z,3.60
2019-02-26T05:52:14.036Z,3.60
2019-02-26T05:55:03.426Z,3.70
2019-02-26T05:57:52.636Z,3.60
2019-02-26T06:00:42.056Z,3.50
2019-02-26T06:03:31.539Z,3.50
2019-02-26T06:06:20.793Z,3.40
2019-02-26T06:09:09.851Z,3.50
2019-02-26T06:11:58.917Z,3.50
2019-02-26T06:14:48.197Z,3.40
2019-02-26T06:17:40.587Z,3.30
2019-02-26T06:20:31.345Z,3.30
2019-02-26T06:23:19.717Z,3.30
2019-02-26T06:26:13.993Z,3.30
2019-02-26T06:29:00.680Z,3.30
2019-02-26T06:31:50.152Z,3.30
2019-02-26T06:34:38.850Z,3.30
2019-02-26T06:37:29.165Z,3.40
2019-02-26T06:40:19.085Z,3.40
2019-02-26T06:43:08.252Z,3.50
2019-02-26T06:45:57.731Z,3.50
2019-02-26T06:48:46.957Z,3.60
2019-02-26T06:51:35.435Z,3.60
2019-02-26T06:54:26.635Z,3.60
2019-02-26T06:57:15.067Z,3.70
2019-02-26T07:00:09.069Z,4.10
2019-02-26T07:03:01.988Z,4.60
2019-02-26T07:05:48.595Z,5.10
2019-02-26T07:08:38.029Z,5.40
2019-02-26T07:11:28.122Z,5.70
2019-02-26T07:14:17.435Z,5.90
2019-02-26T07:17:06.244Z,6.10
2019-02-26T07:19:57.309Z,6.30
2019-02-26T07:22:48.599Z,6.40
2019-02-26T07:25:39.048Z,6.60
2019-02-26T07:28:27.114Z,7.00
2019-02-26T07:31:16.220Z,7.30
2019-02-26T07:34:05.881Z,7.60
2019-02-26T07:36:54.903Z,7.70
2019-02-26T07:39:45.059Z,7.80
2019-02-26T07:42:35.033Z,7.80
2019-02-26T07:45:27.316Z,7.50
2019-02-26T07:48:18.588Z,7.20
2019-02-26T07:51:06.176Z,6.70
2019-02-26T07:53:56.515Z,6.40
2019-02-26T07:56:46.331Z,6.30
2019-02-26T07:59:36.953Z,6.30
2019-02-26T08:02:27.765Z,6.40
2019-02-26T08:05:18.727Z,6.50
2019-02-26T08:08:06.971Z,6.60
2019-02-26T08:10:56.195Z,6.70
2019-02-26T08:13:45.161Z,6.70
2019-02-26T08:16:34.425Z,6.70
2019-02-26T08:19:29.492Z,6.70
2019-02-26T08:22:14.263Z,6.80
2019-02-26T08:25:04.071Z,6.80
2019-02-26T08:27:54.043Z,6.90
2019-02-26T08:30:45.212Z,6.90
2019-02-26T08:33:34.104Z,7.00
2019-02-26T08:36:23.505Z,7.00
2019-02-26T08:39:15.014Z,7.10
2019-02-26T08:42:10.336Z,7.20
2019-02-26T08:44:59.258Z,7.20
2019-02-26T08:47:48.156Z,7.40
2019-02-26T08:50:39.068Z,7.60
2019-02-26T08:53:29.023Z,7.70
2019-02-26T08:56:18.915Z,7.80
2019-02-26T08:59:08.328Z,8.00
2019-02-26T09:01:57.911Z,8.10
2019-02-26T09:04:47.802Z,8.20
2019-02-26T09:07:38.574Z,8.20
2019-02-26T09:10:28.242Z,8.20
2019-02-26T09:13:18.750Z,8.40
2019-02-26T09:16:08.379Z,8.50
2019-02-26T09:18:57.712Z,8.50
2019-02-26T09:21:47.779Z,8.70
2019-02-26T09:24:37.481Z,8.70
2019-02-26T09:27:27.209Z,8.80
2019-02-26T09:30:21.143Z,8.80
2019-02-26T09:33:11.157Z,9.00
2019-02-26T09:36:01.102Z,9.10
2019-02-26T09:38:51.465Z,9.20
2019-02-26T09:41:44.929Z,9.20
2019-02-26T09:44:33.980Z,9.40
2019-02-26T09:47:26.167Z,9.50
2019-02-26T09:50:17.558Z,9.60
2019-02-26T09:53:06.593Z,9.70
2019-02-26T09:55:56.019Z,9.70
2019-02-26T09:58:46.514Z,9.70
2019-02-26T10:01:37.714Z,9.80
2019-02-26T10:04:26.992Z,9.90
2019-02-26T10:07:17.246Z,10.00
2019-02-26T10:10:14.123Z,10.10
2019-02-26T10:13:04.813Z,10.20
2019-02-26T10:15:58.258Z,10.30
2019-02-26T10:18:46.827Z,10.30
2019-02-26T10:21:37.533Z,10.40
2019-02-26T10:24:29.743Z,10.60
2019-02-26T10:27:22.330Z,10.60
2019-02-26T10:30:20.038Z,10.70
2019-02-26T10:33:09.302Z,10.80
2019-02-26T10:35:58.148Z,11.00
2019-02-26T10:38:47.011Z,11.10
2019-02-26T10:41:37.428Z,11.20
2019-02-26T10:44:27.426Z,11.20
2019-02-26T10:47:16.369Z,11.40
2019-02-26T10:50:13.059Z,11.40
2019-02-26T10:53:09.535Z,11.60
2019-02-26T10:55:53.951Z,11.60
2019-02-26T10:58:43.163Z,11.70
2019-02-26T11:01:33.677Z,11.90
2019-02-26T11:04:34.259Z,11.90
2019-02-26T11:07:14.859Z,11.90
2019-02-26T11:10:06.775Z,12.00
2019-02-26T11:12:57.057Z,12.10
2019-02-26T11:15:48.860Z,12.20
2019-02-26T11:18:39.865Z,12.40
2019-02-26T11:21:28.611Z,12.40
2019-02-26T11:24:17.743Z,12.50
2019-02-26T11:27:06.598Z,12.50
2019-02-26T11:29:57.812Z,12.70
2019-02-26T11:32:46.654Z,12.70
2019-02-26T11:35:35.847Z,12.80
2019-02-26T11:38:25.004Z,12.80
2019-02-26T11:41:14.248Z,12.90
2019-02-26T11:44:07.183Z,13.00
2019-02-26T11:46:56.285Z,13.10
2019-02-26T11:49:46.704Z,13.10
2019-02-26T11:52:36.427Z,13.10
2019-02-26T11:55:29.177Z,13.20
2019-02-26T11:58:19.887Z,13.30
2019-02-26T12:01:08.707Z,13.40
2019-02-26T12:04:03.224Z,13.40
2019-02-26T12:06:48.767Z,13.50
2019-02-26T12:09:40.558Z,13.60
2019-02-26T12:12:30.935Z,13.70
2019-02-26T12:15:19.471Z,13.80
2019-02-26T12:18:10.143Z,13.80
2019-02-26T12:21:00.699Z,13.90
2019-02-26T12:23:50.583Z,13.90
2019-02-26T12:26:42.313Z,14.10
2019-02-26T12:29:30.722Z,14.20
2019-02-26T12:32:22.331Z,14.10
2019-02-26T12:35:12.068Z,14.20
2019-02-26T12:38:17.545Z,14.00
2019-02-26T12:40:53.406Z,14.10
2019-02-26T12:43:46.203Z,14.30
2019-02-26T12:46:33.826Z,14.30
2019-02-26T12:49:22.797Z,14.20
2019-02-26T12:52:11.978Z,14.30
2019-02-26T12:55:04.301Z,14.40
2019-02-26T12:57:52.795Z,14.30
2019-02-26T13:00:42.288Z,14.30
2019-02-26T13:03:31.729Z,14.20
2019-02-26T13:06:22.826Z,14.40
2019-02-26T13:09:12.932Z,14.30
2019-02-26T13:12:02.906Z,14.10
2019-02-26T13:14:54.579Z,14.30
2019-02-26T13:17:45.203Z,14.30
2019-02-26T13:20:34.199Z,14.30
2019-02-26T13:23:22.943Z,14.30
2019-02-26T13:26:14.412Z,14.30
2019-02-26T13:29:02.939Z,14.20
2019-02-26T13:31:56.484Z,14.30
2019-02-26T13:34:42.771Z,14.40
2019-02-26T13:37:35.541Z,14.30
2019-02-26T13:40:25.180Z,14.40
2019-02-26T13:43:14.547Z,14.50
2019-02-26T13:46:03.361Z,14.50
2019-02-26T13:48:53.071Z,14.40
2019-02-26T13:51:41.843Z,14.50
2019-02-26T13:54:31.121Z,14.50
2019-02-26T13:57:20.505Z,14.50
2019-02-26T14:00:15.551Z,14.50
2019-02-26T14:03:04.894Z,14.40
2019-02-26T14:05:53.717Z,14.40
2019-02-26T14:08:42.993Z,14.50
2019-02-26T14:11:31.328Z,14.40
2019-02-26T14:14:19.435Z,14.40
2019-02-26T14:17:08.252Z,14.40
2019-02-26T14:19:56.660Z,14.40
2019-02-26T14:22:45.240Z,14.40
2019-02-26T14:25:33.501Z,14.40
2019-02-26T14:28:21.735Z,14.30
2019-02-26T14:31:09.830Z,14.30
2019-02-26T14:33:58.128Z,14.20
2019-02-26T14:36:46.435Z,14.20
2019-02-26T14:39:34.825Z,14.20
2019-02-26T14:42:22.448Z,14.20
2019-02-26T14:45:16.572Z,14.20
2019-02-26T14:48:04.752Z,14.20
2019-02-26T14:50:53.231Z,14.10
2019-02-26T14:53:41.909Z,14.00
2019-02-26T14:56:30.439Z,14.00
2019-02-26T14:59:18.412Z,13.90
2019-02-26T15:02:06.928Z,13.90
2019-02-26T15:04:57.055Z,13.80
2019-02-26T15:07:46.185Z,13.80
2019-02-26T15:10:34.427Z,13.70
2019-02-26T15:13:22.781Z,13.70
2019-02-26T15:16:11.026Z,13.60
2019-02-26T15:18:59.373Z,13.50
2019-02-26T15:21:47.856Z,13.50
2019-02-26T15:24:35.835Z,13.40
2019-02-26T15:27:24.114Z,13.40
2019-02-26T15:30:14.938Z,13.30
2019-02-26T15:33:10.734Z,13.20
2019-02-26T15:35:53.581Z,13.10
2019-02-26T15:38:41.902Z,13.10
2019-02-26T15:41:29.694Z,13.00
2019-02-26T15:44:18.124Z,12.90
2019-02-26T15:47:06.221Z,12.80
2019-02-26T15:49:54.687Z,12.60
2019-02-26T15:52:43.304Z,12.50
2019-02-26T15:55:33.418Z,12.40
2019-02-26T15:58:22.650Z,12.30
2019-02-26T16:01:12.862Z,12.20
2019-02-26T16:04:02.735Z,12.20
2019-02-26T16:06:52.248Z,12.10
2019-02-26T16:09:41.718Z,12.00
2019-02-26T16:12:30.798Z,11.90
2019-02-26T16:15:20.566Z,11.70
2019-02-26T16:18:09.129Z,11.60
2019-02-26T16:20:58.177Z,11.50
2019-02-26T16:23:47.112Z,11.40
2019-02-26T16:26:38.441Z,11.30
2019-02-26T16:29:27.715Z,11.10
2019-02-26T16:32:16.896Z,11.00
2019-02-26T16:35:06.460Z,10.90
2019-02-26T16:37:56.145Z,10.80
2019-02-26T16:40:45.127Z,10.80
2019-02-26T16:43:34.380Z,10.70
2019-02-26T16:46:23.431Z,10.60
2019-02-26T16:49:12.722Z,10.50
2019-02-26T16:52:01.895Z,10.40
2019-02-26T16:54:50.835Z,10.20
2019-02-26T16:57:40.024Z,10.20
2019-02-26T17:00:33.132Z,10.10
2019-02-26T17:03:22.327Z,9.90
2019-02-26T17:06:11.268Z,9.70
2019-02-26T17:09:00.477Z,9.50
2019-02-26T17:11:49.539Z,9.30
2019-02-26T17:14:38.835Z,9.10
2019-02-26T17:17:28.080Z,9.00
2019-02-26T17:20:17.033Z,9.00
2019-02-26T17:23:06.376Z,8.90
2019-02-26T17:25:55.491Z,8.90
2019-02-26T17:28:44.637Z,8.90
2019-02-26T17:31:34.109Z,8.90
2019-02-26T17:34:23.672Z,8.70
2019-02-26T17:37:12.612Z,8.70
2019-02-26T17:40:03.281Z,8.60
2019-02-26T17:42:53.678Z,8.80
2019-02-26T17:45:43.323Z,8.80
2019-02-26T17:48:43.051Z,8.80
2019-02-26T17:51:23.770Z,8.60
2019-02-26T17:54:12.667Z,8.40
2019-02-26T17:57:01.868Z,8.20
2019-02-26T17:59:52.753Z,8.20
2019-02-26T18:02:41.988Z,8.00
2019-02-26T18:05:31.405Z,8.00
2019-02-26T18:08:20.532Z,7.80
2019-02-26T18:11:09.936Z,7.80
2019-02-26T18:14:00.219Z,7.80
2019-02-26T18:16:50.278Z,7.80
2019-02-26T18:19:39.598Z,7.70
2019-02-26T18:22:28.159Z,7.60
2019-02-26T18:25:20.675Z,7.40
2019-02-26T18:28:09.506Z,7.40
2019-02-26T18:30:58.908Z,7.50
2019-02-26T18:33:48.282Z,7.40
2019-02-26T18:36:37.433Z,7.30
2019-02-26T18:39:27.072Z,7.30
2019-02-26T18:42:16.378Z,7.30
2019-02-26T18:45:09.759Z,7.20
2019-02-26T18:47:59.025Z,7.20
2019-02-26T18:50:48.001Z,7.10
2019-02-26T18:53:37.349Z,7.00
2019-02-26T18:56:26.627Z,6.90
2019-02-26T18:59:15.692Z,6.80
2019-02-26T19:02:04.729Z,6.70
2019-02-26T19:04:54.332Z,6.80
2019-02-26T19:07:43.701Z,6.80
2019-02-26T19:10:32.676Z,6.80
2019-02-26T19:13:21.645Z,6.70
2019-02-26T19:16:11.004Z,6.60
2019-02-26T19:18:59.587Z,6.60
2019-02-26T19:21:48.701Z,6.60
2019-02-26T19:24:38.293Z,6.60
2019-02-26T19:27:26.897Z,6.50
2019-02-26T19:30:20.865Z,6.50
2019-02-26T19:33:10.005Z,6.50
2019-02-26T19:35:59.723Z,6.50
2019-02-26T19:38:49.037Z,6.60
2019-02-26T19:41:38.225Z,6.50
2019-02-26T19:44:27.807Z,6.50
2019-02-26T19:47:16.907Z,6.60
2019-02-26T19:50:11.838Z,6.50
2019-02-26T19:53:02.449Z,6.30
2019-02-26T19:55:53.121Z,6.30
2019-02-26T19:58:41.959Z,6.20
2019-02-26T20:01:31.310Z,6.40
2019-02-26T20:04:20.495Z,6.40
2019-02-26T20:07:08.946Z,6.30
2019-02-26T20:09:58.630Z,6.40
2019-02-26T20:12:48.554Z,6.30
2019-02-26T20:15:37.646Z,6.20
2019-02-26T20:18:27.066Z,6.20
2019-02-26T20:21:16.827Z,6.10
2019-02-26T20:24:07.575Z,6.00
2019-02-26T20:26:56.766Z,5.90
2019-02-26T20:29:46.454Z,5.80
2019-02-26T20:32:36.061Z,5.70
2019-02-26T20:35:26.011Z,5.60
2019-02-26T20:38:16.859Z,5.50
2019-02-26T20:41:06.186Z,5.50
2019-02-26T20:43:55.645Z,5.40
2019-02-26T20:46:45.551Z,5.40
2019-02-26T20:49:35.244Z,5.50
2019-02-26T20:52:24.585Z,5.60
2019-02-26T20:55:23.595Z,5.70
2019-02-26T20:58:12.827Z,5.60
2019-02-26T21:01:02.438Z,5.60
2019-02-26T21:03:51.303Z,5.50
2019-02-26T21:06:40.672Z,5.50
2019-02-26T21:09:29.510Z,5.40
2019-02-26T21:12:20.312Z,5.40
2019-02-26T21:15:25.173Z,5.40
2019-02-26T21:18:13.978Z,5.40
2019-02-26T21:21:03.304Z,5.30
2019-02-26T21:23:52.321Z,5.30
2019-02-26T21:26:41.847Z,5.30
2019-02-26T21:29:30.708Z,5.30
2019-02-26T21:32:19.672Z,5.20
2019-02-26T21:35:10.752Z,5.20
2019-02-26T21:37:59.817Z,5.10
2019-02-26T21:40:51.927Z,5.10
2019-02-26T21:43:39.683Z,5.10
2019-02-26T21:46:28.870Z,5.00
2019-02-26T21:49:17.837Z,5.10
2019-02-26T21:52:08.940Z,5.10
2019-02-26T21:55:00.408Z,5.10
2019-02-26T21:57:48.616Z,5.10
2019-02-26T22:00:39.019Z,5.00
2019-02-26T22:03:29.105Z,5.00
2019-02-26T22:06:18.245Z,4.90
2019-02-26T22:09:07.321Z,4.90
2019-02-26T22:11:56.603Z,4.90
2019-02-26T22:14:45.322Z,4.80
2019-02-26T22:17:35.039Z,4.90
2019-02-26T22:20:35.809Z,4.90
2019-02-26T22:23:15.316Z,5.00
2019-02-26T22:26:04.346Z,4.90
2019-02-26T22:28:53.856Z,4.90
2019-02-26T22:31:42.722Z,5.00
2019-02-26T22:34:31.664Z,4.90
2019-02-26T22:37:21.054Z,4.90
2019-02-26T22:40:12.836Z,4.80
2019-02-26T22:43:02.048Z,4.90
2019-02-26T22:45:50.603Z,4.80
2019-02-26T22:48:39.707Z,4.90
2019-02-26T22:51:28.644Z,4.90
2019-02-26T22:54:17.485Z,4.80
2019-02-26T22:57:06.245Z,4.70
2019-02-26T22:59:55.153Z,4.70
2019-02-26T23:02:44.474Z,4.60
2019-02-26T23:05:33.205Z,4.60
2019-02-26T23:08:22.599Z,4.60
2019-02-26T23:11:13.499Z,4.60
2019-02-26T23:14:04.978Z,4.60
2019-02-26T23:16:54.296Z,4.60
2019-02-26T23:19:43.466Z,4.60
2019-02-26T23:22:32.394Z,4.50
2019-02-26T23:25:21.801Z,4.50
2019-02-26T23:28:10.883Z,4.50
2019-02-26T23:31:00.457Z,4.40
2019-02-26T23:33:49.817Z,4.50
2019-02-26T23:36:38.844Z,4.40
2019-02-26T23:39:28.661Z,4.50
2019-02-26T23:42:17.772Z,4.50
2019-02-26T23:45:12.734Z,4.40
2019-02-26T23:48:01.902Z,4.40
2019-02-26T23:50:51.574Z,4.40
2019-02-26T23:53:40.727Z,4.40
2019-02-26T23:56:29.868Z,4.30
2019-02-26T23:59:18.732Z,4.30
